createdAt,value
2023-06-27T00:01:53.520Z,100213.34
2023-06-27T00:05:17.114Z,100211.91
2023-06-27T00:08:16.675Z,100214.82
2023-06-27T00:11:24.052Z,100220.08
2023-06-27T00:14:35.052Z,100216.02
2023-06-27T00:17:44.720Z,100215.80
2023-06-27T00:20:56.216Z,100213.09
2023-06-27T00:24:04.312Z,100211.66
2023-06-27T00:27:20.380Z,100212.14
2023-06-27T00:30:31.951Z,100211.63
2023-06-27T00:33:28.203Z,100212.60
2023-06-27T00:36:46.924Z,100213.23
2023-06-27T00:39:39.812Z,100212.11
2023-06-27T00:42:44.585Z,100208.49
2023-06-27T00:46:13.148Z,100205.55
2023-06-27T00:49:22.874Z,100203.64
2023-06-27T00:52:46.697Z,100205.93
2023-06-27T00:56:02.497Z,100199.40
2023-06-27T00:59:30.012Z,100197.51
2023-06-27T01:02:54.210Z,100198.56
2023-06-27T01:06:00.301Z,100193.59
2023-06-27T01:09:10.136Z,100189.55
2023-06-27T01:12:22.151Z,100188.95
2023-06-27T01:15:42.752Z,100191.76
2023-06-27T01:18:32.471Z,100191.40
2023-06-27T01:21:09.598Z,100193.24
2023-06-27T01:24:37.649Z,100192.55
2023-06-27T01:27:46.406Z,100193.19
2023-06-27T01:31:14.099Z,100187.59
2023-06-27T01:33:59.455Z,100188.95
2023-06-27T01:37:15.513Z,100190.54
2023-06-27T01:40:04.394Z,100186.95
2023-06-27T01:43:31.967Z,100185.25
2023-06-27T01:46:20.579Z,100187.00
2023-06-27T01:49:14.222Z,100185.45
2023-06-27T01:52:22.332Z,100187.07
2023-06-27T01:55:49.810Z,100185.66
2023-06-27T01:59:13.646Z,100184.11
2023-06-27T02:02:37.511Z,100186.98
2023-06-27T02:06:01.053Z,100187.58
2023-06-27T02:09:28.895Z,100189.23
2023-06-27T02:12:56.467Z,100194.08
2023-06-27T02:16:04.897Z,100185.78
2023-06-27T02:19:32.550Z,100187.23
2023-06-27T02:22:37.774Z,100186.27
2023-06-27T02:26:06.512Z,100187.34
2023-06-27T02:29:37.411Z,100184.90
2023-06-27T02:32:45.142Z,100181.65
2023-06-27T02:36:14.175Z,100185.10
2023-06-27T02:39:11.893Z,100185.73
2023-06-27T02:42:20.667Z,100184.14
2023-06-27T02:45:48.211Z,100187.23
2023-06-27T02:48:56.890Z,100184.23
2023-06-27T02:52:24.470Z,100189.50
2023-06-27T02:55:34.264Z,100196.67
2023-06-27T02:58:43.041Z,100201.75
2023-06-27T03:01:52.061Z,100202.32
2023-06-27T03:05:19.656Z,100206.32
2023-06-27T03:08:47.300Z,100199.09
2023-06-27T03:12:14.840Z,100198.75
2023-06-27T03:15:21.254Z,100196.88
2023-06-27T03:18:29.796Z,100197.98
2023-06-27T03:21:39.448Z,100201.96
2023-06-27T03:24:49.358Z,100210.06
2023-06-27T03:27:40.334Z,100209.90
2023-06-27T03:31:08.819Z,100208.42
2023-06-27T03:34:36.574Z,100216.52
2023-06-27T03:38:04.633Z,100222.95
2023-06-27T03:40:33.771Z,100230.45
2023-06-27T03:43:57.397Z,100225.25
2023-06-27T03:46:47.210Z,100224.32
2023-06-27T03:49:58.301Z,100222.09
2023-06-27T03:53:07.738Z,100216.98
2023-06-27T03:56:31.487Z,100218.27
2023-06-27T03:59:59.435Z,100214.38
2023-06-27T04:03:07.150Z,100214.94
2023-06-27T04:06:23.289Z,100217.74
2023-06-27T04:09:30.856Z,100224.61
2023-06-27T04:12:20.886Z,100222.11
2023-06-27T04:15:11.633Z,100218.55
2023-06-27T04:18:39.645Z,100219.17
2023-06-27T04:21:49.558Z,100221.42
2023-06-27T04:24:58.615Z,100216.91
2023-06-27T04:27:47.817Z,100221.65
2023-06-27T04:31:15.427Z,100218.11
2023-06-27T04:34:20.325Z,100222.07
2023-06-27T04:37:43.908Z,100223.61
2023-06-27T04:41:11.464Z,100224.47
2023-06-27T04:44:24.148Z,100223.98
2023-06-27T04:47:28.069Z,100221.95
2023-06-27T04:50:55.560Z,100224.25
2023-06-27T04:54:23.372Z,100214.73
2023-06-27T04:57:32.256Z,100214.98
2023-06-27T05:00:26.504Z,100221.82
2023-06-27T05:03:54.275Z,100218.35
2023-06-27T05:07:10.372Z,100223.73
2023-06-27T05:10:19.073Z,100229.91
2023-06-27T05:13:27.451Z,100225.84
2023-06-27T05:16:23.808Z,100228.51
2023-06-27T05:19:35.435Z,100225.43
2023-06-27T05:23:03.124Z,100225.73
2023-06-27T05:26:12.711Z,100222.34
2023-06-27T05:29:02.870Z,100227.88
2023-06-27T05:32:12.622Z,100232.02
2023-06-27T05:35:40.734Z,100231.11
2023-06-27T05:39:08.096Z,100236.86
2023-06-27T05:42:35.813Z,100236.39
2023-06-27T05:45:44.412Z,100236.55
2023-06-27T05:49:12.000Z,100239.68
2023-06-27T05:52:09.191Z,100243.50
2023-06-27T05:55:16.972Z,100243.79
2023-06-27T05:58:44.730Z,100241.25
2023-06-27T06:01:15.000Z,100244.77
2023-06-27T06:04:42.554Z,100243.92
2023-06-27T06:08:10.137Z,100243.55
2023-06-27T06:11:37.904Z,100244.02
2023-06-27T06:14:53.399Z,100234.57
2023-06-27T06:18:01.924Z,100230.77
2023-06-27T06:20:53.416Z,100227.27
2023-06-27T06:24:23.912Z,100219.45
2023-06-27T06:28:01.726Z,100222.43
2023-06-27T06:31:29.431Z,100222.05
2023-06-27T06:34:39.199Z,100220.44
2023-06-27T06:37:46.982Z,100224.50
2023-06-27T06:40:54.960Z,100225.20
2023-06-27T06:44:04.763Z,100223.53
2023-06-27T06:47:32.336Z,100227.38
2023-06-27T06:50:21.123Z,100229.52
2023-06-27T06:53:30.250Z,100227.32
2023-06-27T06:56:57.834Z,100224.87
2023-06-27T06:59:49.483Z,100224.42
2023-06-27T07:03:17.403Z,100223.17
2023-06-27T07:06:45.237Z,100221.27
2023-06-27T07:09:34.826Z,100222.66
2023-06-27T07:12:24.096Z,100223.63
2023-06-27T07:14:51.798Z,100225.88
2023-06-27T07:17:28.856Z,100228.98
2023-06-27T07:20:36.641Z,100224.29
2023-06-27T07:23:26.094Z,100225.88
2023-06-27T07:26:53.649Z,100224.55
2023-06-27T07:29:41.389Z,100227.41
2023-06-27T07:32:30.416Z,100227.20
2023-06-27T07:35:45.652Z,100225.81
2023-06-27T07:39:13.712Z,100226.48
2023-06-27T07:42:41.447Z,100222.05
2023-06-27T07:46:09.048Z,100229.10
2023-06-27T07:48:37.086Z,100230.02
2023-06-27T07:51:06.851Z,100230.09
2023-06-27T07:54:34.603Z,100230.23
2023-06-27T07:57:03.197Z,100231.36
2023-06-27T08:00:30.777Z,100228.30
2023-06-27T08:03:58.321Z,100230.61
2023-06-27T08:07:06.009Z,100228.68
2023-06-27T08:10:33.811Z,100230.39
2023-06-27T08:13:02.579Z,100230.54
2023-06-27T08:16:14.193Z,100235.71
2023-06-27T08:19:41.972Z,100234.98
2023-06-27T08:22:17.311Z,100233.83
2023-06-27T08:24:47.083Z,100235.27
2023-06-27T08:27:43.547Z,100237.56
2023-06-27T08:30:19.987Z,100238.61
2023-06-27T08:33:36.153Z,100231.33
2023-06-27T08:36:59.161Z,100224.63
2023-06-27T08:40:27.007Z,100224.63
2023-06-27T08:43:36.618Z,100225.23
2023-06-27T08:47:06.236Z,100224.15
2023-06-27T08:50:16.124Z,100231.19
2023-06-27T08:53:44.316Z,100234.61
2023-06-27T08:56:52.653Z,100233.08
2023-06-27T09:00:20.514Z,100224.44
2023-06-27T09:03:30.421Z,100219.12
2023-06-27T09:06:58.113Z,100218.42
2023-06-27T09:10:26.556Z,100220.29
2023-06-27T09:13:50.166Z,100218.31
2023-06-27T09:16:58.860Z,100215.44
2023-06-27T09:20:26.579Z,100218.73
2023-06-27T09:23:16.335Z,100219.45
2023-06-27T09:26:43.926Z,100218.80
2023-06-27T09:29:51.530Z,100215.22
2023-06-27T09:32:20.361Z,100219.14
2023-06-27T09:34:48.188Z,100213.20
2023-06-27T09:40:07.699Z,100214.31
2023-06-27T09:43:16.199Z,100215.71
2023-06-27T09:46:43.673Z,100219.20
2023-06-27T09:50:11.304Z,100213.34
2023-06-27T09:53:20.003Z,100208.13
2023-06-27T09:56:11.843Z,100206.39
2023-06-27T09:58:40.150Z,100195.62
2023-06-27T10:01:30.321Z,100181.83
2023-06-27T10:04:02.833Z,100183.11
2023-06-27T10:06:31.804Z,100187.22
2023-06-27T10:08:59.550Z,100183.65
2023-06-27T10:11:27.285Z,100177.63
2023-06-27T10:14:00.148Z,100172.02
2023-06-27T10:16:28.794Z,100172.89
2023-06-27T10:19:37.599Z,100168.16
2023-06-27T10:22:46.373Z,100162.63
2023-06-27T10:26:13.834Z,100160.61
2023-06-27T10:29:22.434Z,100162.13
2023-06-27T10:32:50.350Z,100163.96
2023-06-27T10:35:21.511Z,100162.80
2023-06-27T10:38:49.146Z,100161.27
2023-06-27T10:41:38.797Z,100159.94
2023-06-27T10:44:30.890Z,100166.13
2023-06-27T10:47:38.611Z,100169.27
2023-06-27T10:50:17.098Z,100163.21
2023-06-27T10:53:44.716Z,100164.88
2023-06-27T10:57:12.389Z,100163.91
2023-06-27T11:00:40.043Z,100157.08
2023-06-27T11:03:52.515Z,100158.55
2023-06-27T11:07:19.856Z,100156.11
2023-06-27T11:10:28.660Z,100152.99
2023-06-27T11:13:56.376Z,100144.88
2023-06-27T11:17:05.026Z,100143.55
2023-06-27T11:20:32.835Z,100144.95
2023-06-27T11:23:21.800Z,100142.39
2023-06-27T11:26:29.527Z,100131.39
2023-06-27T11:29:37.280Z,100130.68
2023-06-27T11:33:05.041Z,100128.48
2023-06-27T11:36:09.578Z,100127.23
2023-06-27T11:39:37.371Z,100117.96
2023-06-27T11:43:04.951Z,100118.23
2023-06-27T11:46:32.545Z,100114.96
2023-06-27T11:49:55.955Z,100111.09
2023-06-27T11:53:23.445Z,100122.53
2023-06-27T11:56:51.141Z,100136.09
2023-06-27T11:59:59.588Z,100138.14
2023-06-27T12:03:27.131Z,100141.63
2023-06-27T12:06:54.777Z,100138.77
2023-06-27T12:10:06.353Z,100141.19
2023-06-27T12:13:33.899Z,100151.48
2023-06-27T12:17:01.607Z,100153.70
2023-06-27T12:20:29.158Z,100152.41
2023-06-27T12:23:38.029Z,100147.02
2023-06-27T12:27:05.767Z,100147.45
2023-06-27T12:30:34.084Z,100142.15
2023-06-27T12:33:43.531Z,100134.72
2023-06-27T12:37:11.504Z,100135.65
2023-06-27T12:40:39.383Z,100133.58
2023-06-27T12:43:47.835Z,100130.25
2023-06-27T12:46:41.464Z,100130.04
2023-06-27T12:49:50.219Z,100135.43
2023-06-27T12:52:40.848Z,100142.36
2023-06-27T12:55:49.583Z,100144.56
2023-06-27T12:59:17.128Z,100149.18
2023-06-27T13:02:44.979Z,100145.39
2023-06-27T13:05:53.373Z,100148.98
2023-06-27T13:09:21.115Z,100142.94
2023-06-27T13:12:30.921Z,100138.17
2023-06-27T13:15:42.676Z,100134.80
2023-06-27T13:19:07.353Z,100141.56
2023-06-27T13:22:34.921Z,100138.23
2023-06-27T13:26:02.457Z,100145.46
2023-06-27T13:29:30.258Z,100143.83
2023-06-27T13:32:58.061Z,100145.53
2023-06-27T13:36:25.591Z,100145.85
2023-06-27T13:39:53.625Z,100144.33
2023-06-27T13:43:21.242Z,100144.09
2023-06-27T13:46:38.531Z,100143.52
2023-06-27T13:50:06.526Z,100143.69
2023-06-27T13:53:34.082Z,100142.84
2023-06-27T13:57:01.871Z,100153.02
2023-06-27T14:00:10.036Z,100155.27
2023-06-27T14:03:37.693Z,100160.89
2023-06-27T14:06:49.313Z,100166.91
2023-06-27T14:09:58.874Z,100164.34
2023-06-27T14:13:26.592Z,100160.04
2023-06-27T14:16:34.854Z,100156.29
2023-06-27T14:20:02.560Z,100157.70
2023-06-27T14:23:30.371Z,100155.39
2023-06-27T14:26:38.897Z,100152.86
2023-06-27T14:29:48.462Z,100148.10
2023-06-27T14:32:56.378Z,100146.64
2023-06-27T14:36:07.635Z,100145.85
2023-06-27T14:39:32.866Z,100148.38
2023-06-27T14:43:00.551Z,100151.15
2023-06-27T14:46:28.554Z,100153.75
2023-06-27T14:49:38.434Z,100151.23
2023-06-27T14:53:05.903Z,100155.17
2023-06-27T14:56:33.528Z,100148.08
2023-06-27T15:00:01.465Z,100140.85
2023-06-27T15:03:11.299Z,100138.02
2023-06-27T15:06:17.288Z,100133.48
2023-06-27T15:09:06.847Z,100133.79
2023-06-27T15:12:14.517Z,100128.73
2023-06-27T15:14:53.251Z,100119.75
2023-06-27T15:17:51.155Z,100118.78
2023-06-27T15:20:46.983Z,100111.11
2023-06-27T15:24:14.815Z,100105.40
2023-06-27T15:27:31.720Z,100105.46
2023-06-27T15:30:39.438Z,100099.08
2023-06-27T15:34:06.926Z,100102.23
2023-06-27T15:37:15.588Z,100100.98
2023-06-27T15:40:23.619Z,100101.96
2023-06-27T15:43:51.441Z,100108.37
2023-06-27T15:47:19.023Z,100110.45
2023-06-27T15:50:27.212Z,100115.50
2023-06-27T15:53:55.075Z,100126.94
2023-06-27T15:57:22.876Z,100138.59
2023-06-27T16:00:31.304Z,100143.89
2023-06-27T16:03:38.922Z,100151.20
2023-06-27T16:06:47.415Z,100151.43
2023-06-27T16:10:14.980Z,100157.63
2023-06-27T16:13:42.420Z,100155.95
2023-06-27T16:17:10.155Z,100164.90
2023-06-27T16:20:37.710Z,100164.20
2023-06-27T16:24:05.666Z,100167.73
2023-06-27T16:27:13.611Z,100163.04
2023-06-27T16:30:41.693Z,100176.22
2023-06-27T16:34:09.127Z,100182.07
2023-06-27T16:37:20.519Z,100176.45
2023-06-27T16:40:29.549Z,100173.66
2023-06-27T16:43:57.093Z,100181.27
2023-06-27T16:47:24.649Z,100179.52
2023-06-27T16:50:52.313Z,100179.98
2023-06-27T16:54:04.023Z,100177.68
2023-06-27T16:57:13.873Z,100174.36
2023-06-27T17:00:38.809Z,100175.87
2023-06-27T17:04:06.662Z,100175.41
2023-06-27T17:07:34.731Z,100181.12
2023-06-27T17:11:02.347Z,100174.85
2023-06-27T17:14:29.985Z,100172.54
2023-06-27T17:17:57.570Z,100172.11
2023-06-27T17:21:06.254Z,100177.40
2023-06-27T17:23:56.669Z,100174.89
2023-06-27T17:27:26.466Z,100175.17
2023-06-27T17:30:35.105Z,100178.41
2023-06-27T17:34:02.775Z,100186.98
2023-06-27T17:36:51.920Z,100188.45
2023-06-27T17:40:20.065Z,100186.29
2023-06-27T17:43:29.768Z,100186.55
2023-06-27T17:46:57.282Z,100189.69
2023-06-27T17:50:07.401Z,100196.61
2023-06-27T17:53:35.930Z,100188.27
2023-06-27T17:56:47.108Z,100198.05
2023-06-27T18:00:14.094Z,100201.47
2023-06-27T18:03:41.734Z,100209.25
2023-06-27T18:07:00.628Z,100212.47
2023-06-27T18:10:28.495Z,100225.33
2023-06-27T18:13:19.647Z,100227.34
2023-06-27T18:16:47.215Z,100232.62
2023-06-27T18:20:14.925Z,100238.44
2023-06-27T18:23:29.987Z,100242.83
2023-06-27T18:26:19.978Z,100250.04
2023-06-27T18:29:47.583Z,100253.95
2023-06-27T18:32:59.383Z,100255.89
2023-06-27T18:36:07.992Z,100270.67
2023-06-27T18:39:23.466Z,100275.00
2023-06-27T18:42:32.397Z,100273.18
2023-06-27T18:45:40.095Z,100277.54
2023-06-27T18:49:07.660Z,100287.39
2023-06-27T18:52:35.347Z,100305.49
2023-06-27T18:56:02.898Z,100314.38
2023-06-27T18:59:26.026Z,100328.65
2023-06-27T19:02:53.545Z,100321.39
2023-06-27T19:06:21.229Z,100316.88
2023-06-27T19:09:48.935Z,100317.91
2023-06-27T19:12:57.630Z,100332.36
2023-06-27T19:16:06.120Z,100332.30
2023-06-27T19:19:33.652Z,100339.36
2023-06-27T19:23:01.454Z,100335.53
2023-06-27T19:26:29.712Z,100330.77
2023-06-27T19:29:57.848Z,100335.27
2023-06-27T19:33:07.416Z,100331.73
2023-06-27T19:36:16.312Z,100328.80
2023-06-27T19:39:46.347Z,100337.00
2023-06-27T19:42:52.689Z,100343.56
2023-06-27T19:46:20.449Z,100344.53
2023-06-27T19:49:28.702Z,100351.73
2023-06-27T19:52:39.366Z,100352.80
2023-06-27T19:56:06.905Z,100351.61
2023-06-27T19:59:14.598Z,100348.40
2023-06-27T20:02:24.181Z,100358.13
2023-06-27T20:05:51.672Z,100355.61
2023-06-27T20:09:00.437Z,100357.17
2023-06-27T20:12:09.154Z,100357.56
2023-06-27T20:15:25.071Z,100364.89
2023-06-27T20:18:37.194Z,100371.39
2023-06-27T20:21:40.929Z,100377.73
2023-06-27T20:24:49.711Z,100384.75
2023-06-27T20:28:14.496Z,100384.50
2023-06-27T20:31:42.344Z,100392.74
2023-06-27T20:35:12.629Z,100397.99
2023-06-27T20:38:25.434Z,100392.96
2023-06-27T20:41:53.091Z,100396.60
2023-06-27T20:45:20.749Z,100400.65
2023-06-27T20:48:29.892Z,100401.77
2023-06-27T20:51:57.357Z,100403.06
2023-06-27T20:55:25.016Z,100405.42
2023-06-27T20:58:52.716Z,100416.30
2023-06-27T21:02:00.320Z,100412.94
2023-06-27T21:05:27.944Z,100402.32
2023-06-27T21:07:57.367Z,100408.98
2023-06-27T21:11:24.978Z,100409.39
2023-06-27T21:14:52.786Z,100406.29
2023-06-27T21:18:01.477Z,100408.76
2023-06-27T21:21:29.081Z,100423.77
2023-06-27T21:24:56.731Z,100424.38
2023-06-27T21:28:05.118Z,100418.16
2023-06-27T21:31:14.922Z,100409.32
2023-06-27T21:34:42.620Z,100405.48
2023-06-27T21:37:39.330Z,100412.34
2023-06-27T21:41:06.857Z,100421.59
2023-06-27T21:44:30.936Z,100409.79
2023-06-27T21:48:01.573Z,100398.92
2023-06-27T21:51:26.368Z,100402.79
2023-06-27T21:54:54.250Z,100416.40
2023-06-27T21:58:06.908Z,100420.58
2023-06-27T22:01:34.505Z,100423.61
2023-06-27T22:04:36.177Z,100430.42
2023-06-27T22:07:47.161Z,100434.55
2023-06-27T22:10:36.179Z,100433.59
2023-06-27T22:14:04.162Z,100433.23
2023-06-27T22:17:31.656Z,100432.12
2023-06-27T22:20:59.129Z,100431.23
2023-06-27T22:24:26.842Z,100438.27
2023-06-27T22:27:40.092Z,100442.15
2023-06-27T22:31:07.781Z,100442.89
2023-06-27T22:34:01.194Z,100443.23
2023-06-27T22:37:12.696Z,100428.14
2023-06-27T22:40:40.615Z,100423.12
2023-06-27T22:43:48.527Z,100428.63
2023-06-27T22:46:58.482Z,100429.89
2023-06-27T22:50:07.668Z,100435.34
2023-06-27T22:53:35.584Z,100438.02
2023-06-27T22:56:06.868Z,100439.77
2023-06-27T22:59:15.646Z,100444.21
2023-06-27T23:02:43.156Z,100443.50
2023-06-27T23:06:10.752Z,100442.06
2023-06-27T23:09:38.298Z,100439.63
2023-06-27T23:13:05.893Z,100434.86
2023-06-27T23:16:33.495Z,100421.04
2023-06-27T23:20:01.219Z,100398.00
2023-06-27T23:23:09.734Z,100382.30
2023-06-27T23:26:37.450Z,100376.10
2023-06-27T23:30:06.584Z,100369.95
2023-06-27T23:33:34.153Z,100374.36
2023-06-27T23:37:01.746Z,100387.55
2023-06-27T23:40:29.241Z,100389.26
2023-06-27T23:43:37.892Z,100381.77
2023-06-27T23:47:05.405Z,100385.89
2023-06-27T23:50:33.006Z,100394.48
2023-06-27T23:53:41.523Z,100391.05
2023-06-27T23:56:51.250Z,100387.61
